sensor_id;sensor_type;location;lat;lon;timestamp;P1;durP1;ratioP1;P2;durP2;ratioP2
8042;SDS011;4064;48.132;11.366;2024-03-25T00:01:54;3.37;;;2.73;;
8042;SDS011;4064;48.132;11.366;2024-03-25T00:04:19;4.50;;;2.20;;
8042;SDS011;4064;48.132;11.366;2024-03-25T00:06:47;2.72;;;1.80;;
8042;SDS011;4064;48.132;11.366;2024-03-25T00:09:16;7.05;;;2.13;;
8042;SDS011;4064;48.132;11.366;2024-03-25T00:11:42;3.33;;;2.50;;
8042;SDS011;4064;48.132;11.366;2024-03-25T00:14:08;2.23;;;2.00;;
8042;SDS011;4064;48.132;11.366;2024-03-25T00:16:34;4.10;;;1.80;;
8042;SDS011;4064;48.132;11.366;2024-03-25T00:19:00;2.28;;;2.08;;
8042;SDS011;4064;48.132;11.366;2024-03-25T00:21:25;4.90;;;2.37;;
8042;SDS011;4064;48.132;11.366;2024-03-25T00:23:51;2.90;;;2.50;;
8042;SDS011;4064;48.132;11.366;2024-03-25T00:26:16;3.80;;;2.00;;
8042;SDS011;4064;48.132;11.366;2024-03-25T00:28:42;3.20;;;1.90;;
8042;SDS011;4064;48.132;11.366;2024-03-25T00:31:08;4.22;;;3.15;;
8042;SDS011;4064;48.132;11.366;2024-03-25T00:33:34;2.97;;;1.93;;
8042;SDS011;4064;48.132;11.366;2024-03-25T00:36:00;7.17;;;1.93;;
8042;SDS011;4064;48.132;11.366;2024-03-25T00:38:26;4.27;;;2.13;;
8042;SDS011;4064;48.132;11.366;2024-03-25T00:40:51;3.00;;;2.40;;
8042;SDS011;4064;48.132;11.366;2024-03-25T00:43:17;2.40;;;2.10;;
8042;SDS011;4064;48.132;11.366;2024-03-25T00:45:43;2.23;;;2.03;;
8042;SDS011;4064;48.132;11.366;2024-03-25T00:48:08;2.40;;;1.90;;
8042;SDS011;4064;48.132;11.366;2024-03-25T00:50:34;4.23;;;2.50;;
8042;SDS011;4064;48.132;11.366;2024-03-25T00:53:00;3.53;;;2.30;;
8042;SDS011;4064;48.132;11.366;2024-03-25T00:55:26;3.63;;;2.10;;
8042;SDS011;4064;48.132;11.366;2024-03-25T00:57:52;4.43;;;1.80;;
8042;SDS011;4064;48.132;11.366;2024-03-25T01:00:17;4.73;;;2.47;;
8042;SDS011;4064;48.132;11.366;2024-03-25T01:02:43;2.33;;;1.70;;
8042;SDS011;4064;48.132;11.366;2024-03-25T01:05:09;3.10;;;2.20;;
8042;SDS011;4064;48.132;11.366;2024-03-25T01:07:35;1.80;;;1.70;;
8042;SDS011;4064;48.132;11.366;2024-03-25T01:10:01;5.30;;;2.45;;
8042;SDS011;4064;48.132;11.366;2024-03-25T01:12:27;2.57;;;1.93;;
8042;SDS011;4064;48.132;11.366;2024-03-25T01:14:52;2.77;;;2.37;;
8042;SDS011;4064;48.132;11.366;2024-03-25T01:17:18;3.70;;;2.30;;
8042;SDS011;4064;48.132;11.366;2024-03-25T01:19:44;2.63;;;1.90;;
8042;SDS011;4064;48.132;11.366;2024-03-25T01:22:09;3.07;;;2.77;;
8042;SDS011;4064;48.132;11.366;2024-03-25T01:24:35;3.80;;;2.60;;
8042;SDS011;4064;48.132;11.366;2024-03-25T01:27:01;2.80;;;1.87;;
8042;SDS011;4064;48.132;11.366;2024-03-25T01:29:26;4.70;;;3.50;;
8042;SDS011;4064;48.132;11.366;2024-03-25T01:31:52;2.00;;;1.80;;
8042;SDS011;4064;48.132;11.366;2024-03-25T01:34:18;2.60;;;2.40;;
8042;SDS011;4064;48.132;11.366;2024-03-25T01:36:44;5.80;;;2.57;;
8042;SDS011;4064;48.132;11.366;2024-03-25T01:39:09;3.20;;;3.00;;
8042;SDS011;4064;48.132;11.366;2024-03-25T01:41:35;2.30;;;2.10;;
8042;SDS011;4064;48.132;11.366;2024-03-25T01:44:00;7.40;;;2.90;;
8042;SDS011;4064;48.132;11.366;2024-03-25T01:46:27;4.70;;;2.40;;
8042;SDS011;4064;48.132;11.366;2024-03-25T01:48:53;5.07;;;2.60;;
8042;SDS011;4064;48.132;11.366;2024-03-25T01:51:20;2.23;;;2.03;;
8042;SDS011;4064;48.132;11.366;2024-03-25T01:53:48;3.65;;;2.40;;
8042;SDS011;4064;48.132;11.366;2024-03-25T01:56:14;2.60;;;2.40;;
8042;SDS011;4064;48.132;11.366;2024-03-25T01:58:41;2.42;;;2.22;;
8042;SDS011;4064;48.132;11.366;2024-03-25T02:01:07;3.87;;;2.30;;
8042;SDS011;4064;48.132;11.366;2024-03-25T02:03:35;2.17;;;1.95;;
8042;SDS011;4064;48.132;11.366;2024-03-25T02:06:02;3.20;;;2.23;;
8042;SDS011;4064;48.132;11.366;2024-03-25T02:08:33;4.90;;;2.70;;
8042;SDS011;4064;48.132;11.366;2024-03-25T02:10:59;2.88;;;2.60;;
8042;SDS011;4064;48.132;11.366;2024-03-25T02:13:26;2.83;;;2.63;;
8042;SDS011;4064;48.132;11.366;2024-03-25T02:15:52;3.80;;;2.53;;
8042;SDS011;4064;48.132;11.366;2024-03-25T02:18:19;2.45;;;2.10;;
8042;SDS011;4064;48.132;11.366;2024-03-25T02:20:46;2.70;;;2.40;;
8042;SDS011;4064;48.132;11.366;2024-03-25T02:23:12;3.45;;;2.60;;
8042;SDS011;4064;48.132;11.366;2024-03-25T02:25:39;3.88;;;2.47;;
8042;SDS011;4064;48.132;11.366;2024-03-25T02:28:07;3.92;;;1.92;;
8042;SDS011;4064;48.132;11.366;2024-03-25T02:30:33;3.60;;;2.30;;
8042;SDS011;4064;48.132;11.366;2024-03-25T02:32:58;3.67;;;2.40;;
8042;SDS011;4064;48.132;11.366;2024-03-25T02:35:25;6.23;;;2.83;;
8042;SDS011;4064;48.132;11.366;2024-03-25T02:37:51;2.95;;;2.50;;
8042;SDS011;4064;48.132;11.366;2024-03-25T02:40:18;4.85;;;3.05;;
8042;SDS011;4064;48.132;11.366;2024-03-25T02:42:44;2.90;;;2.28;;
8042;SDS011;4064;48.132;11.366;2024-03-25T02:45:10;1.80;;;1.70;;
8042;SDS011;4064;48.132;11.366;2024-03-25T02:47:36;6.60;;;3.00;;
8042;SDS011;4064;48.132;11.366;2024-03-25T02:50:01;2.53;;;2.33;;
8042;SDS011;4064;48.132;11.366;2024-03-25T02:52:27;4.73;;;2.90;;
8042;SDS011;4064;48.132;11.366;2024-03-25T02:54:53;7.80;;;2.87;;
8042;SDS011;4064;48.132;11.366;2024-03-25T02:57:21;3.28;;;2.40;;
8042;SDS011;4064;48.132;11.366;2024-03-25T02:59:47;3.50;;;2.77;;
8042;SDS011;4064;48.132;11.366;2024-03-25T03:02:12;2.90;;;2.40;;
8042;SDS011;4064;48.132;11.366;2024-03-25T03:04:38;3.07;;;2.80;;
8042;SDS011;4064;48.132;11.366;2024-03-25T03:07:04;6.70;;;2.77;;
8042;SDS011;4064;48.132;11.366;2024-03-25T03:09:30;4.25;;;2.88;;
8042;SDS011;4064;48.132;11.366;2024-03-25T03:11:55;3.27;;;2.97;;
8042;SDS011;4064;48.132;11.366;2024-03-25T03:14:21;2.93;;;2.63;;
8042;SDS011;4064;48.132;11.366;2024-03-25T03:16:47;3.67;;;2.20;;
8042;SDS011;4064;48.132;11.366;2024-03-25T03:19:12;3.40;;;2.30;;
8042;SDS011;4064;48.132;11.366;2024-03-25T03:21:38;2.80;;;2.00;;
8042;SDS011;4064;48.132;11.366;2024-03-25T03:24:04;3.20;;;2.90;;
8042;SDS011;4064;48.132;11.366;2024-03-25T03:26:30;3.30;;;2.70;;
8042;SDS011;4064;48.132;11.366;2024-03-25T03:28:56;3.58;;;2.58;;
8042;SDS011;4064;48.132;11.366;2024-03-25T03:31:22;4.55;;;3.28;;
8042;SDS011;4064;48.132;11.366;2024-03-25T03:33:48;2.95;;;2.42;;
8042;SDS011;4064;48.132;11.366;2024-03-25T03:36:18;5.40;;;3.10;;
8042;SDS011;4064;48.132;11.366;2024-03-25T03:38:45;3.38;;;2.53;;
8042;SDS011;4064;48.132;11.366;2024-03-25T03:41:11;2.97;;;2.67;;
8042;SDS011;4064;48.132;11.366;2024-03-25T03:43:37;4.00;;;2.37;;
8042;SDS011;4064;48.132;11.366;2024-03-25T03:46:02;10.70;;;3.73;;
8042;SDS011;4064;48.132;11.366;2024-03-25T03:48:29;2.63;;;2.42;;
8042;SDS011;4064;48.132;11.366;2024-03-25T03:50:54;2.53;;;2.33;;
8042;SDS011;4064;48.132;11.366;2024-03-25T03:53:20;4.90;;;2.93;;
8042;SDS011;4064;48.132;11.366;2024-03-25T03:56:02;3.70;;;3.37;;
8042;SDS011;4064;48.132;11.366;2024-03-25T03:58:32;3.78;;;2.40;;
8042;SDS011;4064;48.132;11.366;2024-03-25T04:00:58;5.30;;;2.63;;
8042;SDS011;4064;48.132;11.366;2024-03-25T04:03:24;3.22;;;2.65;;
8042;SDS011;4064;48.132;11.366;2024-03-25T04:05:50;3.90;;;3.00;;
8042;SDS011;4064;48.132;11.366;2024-03-25T04:08:15;4.47;;;2.40;;
8042;SDS011;4064;48.132;11.366;2024-03-25T04:10:41;3.50;;;3.20;;
8042;SDS011;4064;48.132;11.366;2024-03-25T04:13:08;4.40;;;2.92;;
8042;SDS011;4064;48.132;11.366;2024-03-25T04:15:34;4.27;;;3.70;;
8042;SDS011;4064;48.132;11.366;2024-03-25T04:18:01;4.85;;;3.30;;
8042;SDS011;4064;48.132;11.366;2024-03-25T04:20:27;2.83;;;2.60;;
8042;SDS011;4064;48.132;11.366;2024-03-25T04:22:53;4.13;;;2.60;;
8042;SDS011;4064;48.132;11.366;2024-03-25T04:25:19;4.88;;;2.80;;
8042;SDS011;4064;48.132;11.366;2024-03-25T04:27:45;3.50;;;2.85;;
8042;SDS011;4064;48.132;11.366;2024-03-25T04:30:11;5.00;;;2.73;;
8042;SDS011;4064;48.132;11.366;2024-03-25T04:32:37;3.70;;;2.73;;
8042;SDS011;4064;48.132;11.366;2024-03-25T04:35:05;6.65;;;3.30;;
8042;SDS011;4064;48.132;11.366;2024-03-25T04:37:34;2.63;;;2.42;;
8042;SDS011;4064;48.132;11.366;2024-03-25T04:40:00;7.63;;;2.80;;
8042;SDS011;4064;48.132;11.366;2024-03-25T04:42:27;5.95;;;3.10;;
8042;SDS011;4064;48.132;11.366;2024-03-25T04:44:53;4.65;;;2.47;;
8042;SDS011;4064;48.132;11.366;2024-03-25T04:47:19;3.17;;;2.87;;
8042;SDS011;4064;48.132;11.366;2024-03-25T04:49:45;3.70;;;2.60;;
8042;SDS011;4064;48.132;11.366;2024-03-25T04:52:11;3.67;;;3.23;;
8042;SDS011;4064;48.132;11.366;2024-03-25T04:54:42;3.28;;;2.85;;
8042;SDS011;4064;48.132;11.366;2024-03-25T04:57:08;3.13;;;2.78;;
8042;SDS011;4064;48.132;11.366;2024-03-25T04:59:34;5.23;;;2.47;;
8042;SDS011;4064;48.132;11.366;2024-03-25T05:01:59;8.03;;;2.57;;
8042;SDS011;4064;48.132;11.366;2024-03-25T05:04:25;4.00;;;2.73;;
8042;SDS011;4064;48.132;11.366;2024-03-25T05:06:51;3.53;;;3.17;;
8042;SDS011;4064;48.132;11.366;2024-03-25T05:09:17;3.53;;;2.73;;
8042;SDS011;4064;48.132;11.366;2024-03-25T05:11:42;3.23;;;2.93;;
8042;SDS011;4064;48.132;11.366;2024-03-25T05:14:08;3.83;;;2.50;;
8042;SDS011;4064;48.132;11.366;2024-03-25T05:16:34;4.07;;;2.93;;
8042;SDS011;4064;48.132;11.366;2024-03-25T05:18:59;3.07;;;2.80;;
8042;SDS011;4064;48.132;11.366;2024-03-25T05:21:25;3.23;;;2.93;;
8042;SDS011;4064;48.132;11.366;2024-03-25T05:23:51;4.17;;;2.63;;
8042;SDS011;4064;48.132;11.366;2024-03-25T05:26:16;4.83;;;2.77;;
8042;SDS011;4064;48.132;11.366;2024-03-25T05:28:42;4.93;;;2.90;;
8042;SDS011;4064;48.132;11.366;2024-03-25T05:31:08;3.17;;;2.57;;
8042;SDS011;4064;48.132;11.366;2024-03-25T05:33:34;2.70;;;2.10;;
8042;SDS011;4064;48.132;11.366;2024-03-25T05:36:00;3.57;;;3.27;;
8042;SDS011;4064;48.132;11.366;2024-03-25T05:38:27;3.17;;;2.85;;
8042;SDS011;4064;48.132;11.366;2024-03-25T05:40:53;4.25;;;2.40;;
8042;SDS011;4064;48.132;11.366;2024-03-25T05:43:19;2.83;;;2.17;;
8042;SDS011;4064;48.132;11.366;2024-03-25T05:45:54;3.45;;;2.70;;
8042;SDS011;4064;48.132;11.366;2024-03-25T05:48:20;4.05;;;2.55;;
8042;SDS011;4064;48.132;11.366;2024-03-25T05:50:46;4.50;;;3.05;;
8042;SDS011;4064;48.132;11.366;2024-03-25T05:53:21;3.35;;;2.40;;
8042;SDS011;4064;48.132;11.366;2024-03-25T05:55:47;3.87;;;2.43;;
8042;SDS011;4064;48.132;11.366;2024-03-25T05:58:13;5.00;;;2.80;;
8042;SDS011;4064;48.132;11.366;2024-03-25T06:00:39;6.03;;;3.43;;
8042;SDS011;4064;48.132;11.366;2024-03-25T06:03:04;3.87;;;3.50;;
8042;SDS011;4064;48.132;11.366;2024-03-25T06:05:30;3.10;;;2.47;;
8042;SDS011;4064;48.132;11.366;2024-03-25T06:07:56;3.60;;;2.33;;
8042;SDS011;4064;48.132;11.366;2024-03-25T06:10:21;2.87;;;1.73;;
8042;SDS011;4064;48.132;11.366;2024-03-25T06:12:47;4.70;;;2.80;;
8042;SDS011;4064;48.132;11.366;2024-03-25T06:15:13;4.83;;;2.90;;
8042;SDS011;4064;48.132;11.366;2024-03-25T06:17:38;4.37;;;2.60;;
8042;SDS011;4064;48.132;11.366;2024-03-25T06:20:04;4.87;;;2.53;;
8042;SDS011;4064;48.132;11.366;2024-03-25T06:22:30;2.47;;;2.27;;
8042;SDS011;4064;48.132;11.366;2024-03-25T06:24:56;3.10;;;2.50;;
8042;SDS011;4064;48.132;11.366;2024-03-25T06:27:22;6.00;;;2.90;;
8042;SDS011;4064;48.132;11.366;2024-03-25T06:29:47;3.40;;;2.10;;
8042;SDS011;4064;48.132;11.366;2024-03-25T06:32:13;2.37;;;2.10;;
8042;SDS011;4064;48.132;11.366;2024-03-25T06:34:57;3.17;;;1.90;;
8042;SDS011;4064;48.132;11.366;2024-03-25T06:37:26;4.37;;;1.60;;
8042;SDS011;4064;48.132;11.366;2024-03-25T06:39:52;4.73;;;2.40;;
8042;SDS011;4064;48.132;11.366;2024-03-25T06:42:18;3.40;;;2.73;;
8042;SDS011;4064;48.132;11.366;2024-03-25T06:44:45;2.93;;;1.80;;
8042;SDS011;4064;48.132;11.366;2024-03-25T06:47:14;5.23;;;1.93;;
8042;SDS011;4064;48.132;11.366;2024-03-25T06:49:40;3.90;;;2.27;;
8042;SDS011;4064;48.132;11.366;2024-03-25T06:52:06;4.63;;;2.20;;
8042;SDS011;4064;48.132;11.366;2024-03-25T06:54:34;3.40;;;1.40;;
8042;SDS011;4064;48.132;11.366;2024-03-25T06:56:59;2.33;;;1.70;;
8042;SDS011;4064;48.132;11.366;2024-03-25T06:59:25;3.63;;;2.30;;
8042;SDS011;4064;48.132;11.366;2024-03-25T07:01:51;3.40;;;2.00;;
8042;SDS011;4064;48.132;11.366;2024-03-25T07:04:17;2.80;;;1.83;;
8042;SDS011;4064;48.132;11.366;2024-03-25T07:06:42;7.00;;;1.70;;
8042;SDS011;4064;48.132;11.366;2024-03-25T07:09:08;3.10;;;1.60;;
8042;SDS011;4064;48.132;11.366;2024-03-25T07:11:36;3.30;;;2.30;;
8042;SDS011;4064;48.132;11.366;2024-03-25T07:14:01;4.73;;;1.60;;
8042;SDS011;4064;48.132;11.366;2024-03-25T07:16:27;2.43;;;1.70;;
8042;SDS011;4064;48.132;11.366;2024-03-25T07:18:53;2.07;;;1.77;;
8042;SDS011;4064;48.132;11.366;2024-03-25T07:21:18;2.73;;;1.43;;
8042;SDS011;4064;48.132;11.366;2024-03-25T07:23:44;2.80;;;1.83;;
8042;SDS011;4064;48.132;11.366;2024-03-25T07:26:10;2.53;;;1.80;;
8042;SDS011;4064;48.132;11.366;2024-03-25T07:28:35;4.10;;;1.93;;
8042;SDS011;4064;48.132;11.366;2024-03-25T07:31:03;3.57;;;1.63;;
8042;SDS011;4064;48.132;11.366;2024-03-25T07:33:29;3.23;;;1.93;;
8042;SDS011;4064;48.132;11.366;2024-03-25T07:35:55;3.93;;;1.73;;
8042;SDS011;4064;48.132;11.366;2024-03-25T07:38:21;4.30;;;1.67;;
8042;SDS011;4064;48.132;11.366;2024-03-25T07:40:46;3.40;;;2.33;;
8042;SDS011;4064;48.132;11.366;2024-03-25T07:43:12;3.33;;;1.87;;
8042;SDS011;4064;48.132;11.366;2024-03-25T07:45:37;3.37;;;1.70;;
8042;SDS011;4064;48.132;11.366;2024-03-25T07:48:04;3.20;;;1.37;;
8042;SDS011;4064;48.132;11.366;2024-03-25T07:50:30;3.00;;;1.40;;
8042;SDS011;4064;48.132;11.366;2024-03-25T07:52:56;4.20;;;2.03;;
8042;SDS011;4064;48.132;11.366;2024-03-25T07:55:23;2.13;;;1.30;;
8042;SDS011;4064;48.132;11.366;2024-03-25T07:57:48;2.13;;;1.27;;
8042;SDS011;4064;48.132;11.366;2024-03-25T08:00:14;2.53;;;2.10;;
8042;SDS011;4064;48.132;11.366;2024-03-25T08:02:40;6.73;;;2.20;;
8042;SDS011;4064;48.132;11.366;2024-03-25T08:05:06;1.73;;;1.50;;
8042;SDS011;4064;48.132;11.366;2024-03-25T08:07:32;3.33;;;2.40;;
8042;SDS011;4064;48.132;11.366;2024-03-25T08:09:58;5.60;;;3.13;;
8042;SDS011;4064;48.132;11.366;2024-03-25T08:12:23;2.63;;;2.43;;
8042;SDS011;4064;48.132;11.366;2024-03-25T08:14:49;4.10;;;2.00;;
8042;SDS011;4064;48.132;11.366;2024-03-25T08:17:14;1.60;;;1.00;;
8042;SDS011;4064;48.132;11.366;2024-03-25T08:19:40;3.00;;;2.03;;
8042;SDS011;4064;48.132;11.366;2024-03-25T08:22:06;2.90;;;1.43;;
8042;SDS011;4064;48.132;11.366;2024-03-25T08:24:31;3.27;;;1.43;;
8042;SDS011;4064;48.132;11.366;2024-03-25T08:26:59;1.90;;;1.70;;
8042;SDS011;4064;48.132;11.366;2024-03-25T08:29:25;5.00;;;2.03;;
8042;SDS011;4064;48.132;11.366;2024-03-25T08:31:50;3.30;;;2.10;;
8042;SDS011;4064;48.132;11.366;2024-03-25T08:34:16;3.00;;;1.87;;
8042;SDS011;4064;48.132;11.366;2024-03-25T08:36:41;2.90;;;1.77;;
8042;SDS011;4064;48.132;11.366;2024-03-25T08:39:07;4.03;;;1.97;;
8042;SDS011;4064;48.132;11.366;2024-03-25T08:41:33;4.50;;;1.97;;
8042;SDS011;4064;48.132;11.366;2024-03-25T08:43:59;2.63;;;1.70;;
8042;SDS011;4064;48.132;11.366;2024-03-25T08:46:30;2.20;;;1.80;;
8042;SDS011;4064;48.132;11.366;2024-03-25T08:48:57;2.93;;;1.83;;
8042;SDS011;4064;48.132;11.366;2024-03-25T08:51:23;4.80;;;2.30;;
8042;SDS011;4064;48.132;11.366;2024-03-25T08:53:48;1.90;;;1.70;;
8042;SDS011;4064;48.132;11.366;2024-03-25T08:56:15;5.63;;;1.97;;
8042;SDS011;4064;48.132;11.366;2024-03-25T08:58:40;2.93;;;1.60;;
8042;SDS011;4064;48.132;11.366;2024-03-25T09:01:06;2.37;;;1.57;;
8042;SDS011;4064;48.132;11.366;2024-03-25T09:03:34;2.93;;;1.80;;
8042;SDS011;4064;48.132;11.366;2024-03-25T09:05:59;1.70;;;1.20;;
8042;SDS011;4064;48.132;11.366;2024-03-25T09:08:25;4.80;;;2.13;;
8042;SDS011;4064;48.132;11.366;2024-03-25T09:10:51;2.60;;;1.53;;
8042;SDS011;4064;48.132;11.366;2024-03-25T09:13:32;2.50;;;1.40;;
8042;SDS011;4064;48.132;11.366;2024-03-25T09:15:57;2.50;;;1.70;;
8042;SDS011;4064;48.132;11.366;2024-03-25T09:18:23;5.10;;;1.40;;
8042;SDS011;4064;48.132;11.366;2024-03-25T09:20:49;3.63;;;1.30;;
8042;SDS011;4064;48.132;11.366;2024-03-25T09:23:15;1.63;;;1.20;;
8042;SDS011;4064;48.132;11.366;2024-03-25T09:25:50;3.43;;;1.60;;
8042;SDS011;4064;48.132;11.366;2024-03-25T09:28:16;2.37;;;1.73;;
8042;SDS011;4064;48.132;11.366;2024-03-25T09:30:42;3.13;;;1.47;;
8042;SDS011;4064;48.132;11.366;2024-03-25T09:33:08;2.60;;;1.87;;
8042;SDS011;4064;48.132;11.366;2024-03-25T09:35:34;1.80;;;1.37;;
8042;SDS011;4064;48.132;11.366;2024-03-25T09:37:59;2.00;;;1.33;;
8042;SDS011;4064;48.132;11.366;2024-03-25T09:40:25;3.00;;;1.37;;
8042;SDS011;4064;48.132;11.366;2024-03-25T09:42:58;2.20;;;1.23;;
8042;SDS011;4064;48.132;11.366;2024-03-25T09:45:27;5.90;;;1.63;;
8042;SDS011;4064;48.132;11.366;2024-03-25T09:47:54;2.63;;;1.53;;
8042;SDS011;4064;48.132;11.366;2024-03-25T09:50:21;2.20;;;1.50;;
8042;SDS011;4064;48.132;11.366;2024-03-25T09:52:47;3.30;;;1.53;;
8042;SDS011;4064;48.132;11.366;2024-03-25T09:55:13;2.50;;;1.23;;
8042;SDS011;4064;48.132;11.366;2024-03-25T09:57:39;2.63;;;1.30;;
8042;SDS011;4064;48.132;11.366;2024-03-25T10:00:07;1.93;;;1.10;;
8042;SDS011;4064;48.132;11.366;2024-03-25T10:02:37;6.80;;;1.30;;
8042;SDS011;4064;48.132;11.366;2024-03-25T10:05:04;1.93;;;1.50;;
8042;SDS011;4064;48.132;11.366;2024-03-25T10:07:31;2.47;;;1.40;;
8042;SDS011;4064;48.132;11.366;2024-03-25T10:09:57;2.50;;;1.50;;
8042;SDS011;4064;48.132;11.366;2024-03-25T10:12:23;2.27;;;1.47;;
8042;SDS011;4064;48.132;11.366;2024-03-25T10:14:49;4.27;;;1.70;;
8042;SDS011;4064;48.132;11.366;2024-03-25T10:17:15;1.67;;;1.10;;
8042;SDS011;4064;48.132;11.366;2024-03-25T10:19:41;1.87;;;1.30;;
8042;SDS011;4064;48.132;11.366;2024-03-25T10:22:07;1.57;;;1.20;;
8042;SDS011;4064;48.132;11.366;2024-03-25T10:24:41;2.30;;;1.40;;
8042;SDS011;4064;48.132;11.366;2024-03-25T10:27:18;1.50;;;1.07;;
8042;SDS011;4064;48.132;11.366;2024-03-25T10:29:46;2.33;;;1.00;;
8042;SDS011;4064;48.132;11.366;2024-03-25T10:32:20;2.00;;;1.40;;
8042;SDS011;4064;48.132;11.366;2024-03-25T10:34:49;3.10;;;1.40;;
8042;SDS011;4064;48.132;11.366;2024-03-25T10:37:15;3.60;;;1.30;;
8042;SDS011;4064;48.132;11.366;2024-03-25T10:39:49;2.60;;;1.27;;
8042;SDS011;4064;48.132;11.366;2024-03-25T10:42:17;2.17;;;1.33;;
8042;SDS011;4064;48.132;11.366;2024-03-25T10:44:44;2.07;;;1.33;;
8042;SDS011;4064;48.132;11.366;2024-03-25T10:47:11;2.00;;;1.60;;
8042;SDS011;4064;48.132;11.366;2024-03-25T10:49:50;1.87;;;1.40;;
8042;SDS011;4064;48.132;11.366;2024-03-25T10:52:21;2.73;;;1.20;;
8042;SDS011;4064;48.132;11.366;2024-03-25T10:54:48;1.43;;;1.13;;
8042;SDS011;4064;48.132;11.366;2024-03-25T10:57:14;1.80;;;1.00;;
8042;SDS011;4064;48.132;11.366;2024-03-25T10:59:45;2.10;;;1.20;;
8042;SDS011;4064;48.132;11.366;2024-03-25T11:02:11;1.40;;;1.00;;
8042;SDS011;4064;48.132;11.366;2024-03-25T11:04:37;1.87;;;1.20;;
8042;SDS011;4064;48.132;11.366;2024-03-25T11:07:14;3.03;;;1.50;;
8042;SDS011;4064;48.132;11.366;2024-03-25T11:09:41;1.60;;;1.10;;
8042;SDS011;4064;48.132;11.366;2024-03-25T11:12:10;1.43;;;1.10;;
8042;SDS011;4064;48.132;11.366;2024-03-25T11:14:37;3.00;;;1.40;;
8042;SDS011;4064;48.132;11.366;2024-03-25T11:17:13;2.77;;;1.30;;
8042;SDS011;4064;48.132;11.366;2024-03-25T11:19:40;1.60;;;1.30;;
8042;SDS011;4064;48.132;11.366;2024-03-25T11:22:07;1.77;;;1.43;;
8042;SDS011;4064;48.132;11.366;2024-03-25T11:24:34;2.10;;;1.60;;
8042;SDS011;4064;48.132;11.366;2024-03-25T11:27:07;8.07;;;4.73;;
8042;SDS011;4064;48.132;11.366;2024-03-25T11:29:33;3.10;;;1.50;;
8042;SDS011;4064;48.132;11.366;2024-03-25T11:32:04;2.20;;;1.20;;
8042;SDS011;4064;48.132;11.366;2024-03-25T11:34:30;2.90;;;1.60;;
8042;SDS011;4064;48.132;11.366;2024-03-25T11:36:56;5.53;;;1.43;;
8042;SDS011;4064;48.132;11.366;2024-03-25T11:39:23;2.70;;;1.40;;
8042;SDS011;4064;48.132;11.366;2024-03-25T11:41:51;3.00;;;1.53;;
8042;SDS011;4064;48.132;11.366;2024-03-25T11:44:17;2.00;;;1.23;;
8042;SDS011;4064;48.132;11.366;2024-03-25T11:46:43;5.47;;;1.40;;
8042;SDS011;4064;48.132;11.366;2024-03-25T11:49:12;2.30;;;1.20;;
8042;SDS011;4064;48.132;11.366;2024-03-25T11:51:39;1.77;;;1.30;;
8042;SDS011;4064;48.132;11.366;2024-03-25T11:54:06;2.10;;;1.30;;
8042;SDS011;4064;48.132;11.366;2024-03-25T11:56:32;4.23;;;1.20;;
8042;SDS011;4064;48.132;11.366;2024-03-25T11:59:01;2.10;;;1.77;;
8042;SDS011;4064;48.132;11.366;2024-03-25T12:01:30;2.60;;;1.47;;
8042;SDS011;4064;48.132;11.366;2024-03-25T12:03:56;1.70;;;1.30;;
8042;SDS011;4064;48.132;11.366;2024-03-25T12:06:22;3.50;;;2.07;;
8042;SDS011;4064;48.132;11.366;2024-03-25T12:08:48;4.10;;;1.33;;
8042;SDS011;4064;48.132;11.366;2024-03-25T12:11:33;1.63;;;1.50;;
8042;SDS011;4064;48.132;11.366;2024-03-25T12:13:59;1.60;;;1.33;;
8042;SDS011;4064;48.132;11.366;2024-03-25T12:16:26;1.50;;;1.30;;
8042;SDS011;4064;48.132;11.366;2024-03-25T12:18:52;2.00;;;1.20;;
8042;SDS011;4064;48.132;11.366;2024-03-25T12:21:18;1.40;;;1.13;;
8042;SDS011;4064;48.132;11.366;2024-03-25T12:23:44;3.10;;;1.13;;
8042;SDS011;4064;48.132;11.366;2024-03-25T12:26:11;2.33;;;1.37;;
8042;SDS011;4064;48.132;11.366;2024-03-25T12:28:37;4.27;;;1.20;;
8042;SDS011;4064;48.132;11.366;2024-03-25T12:31:07;3.40;;;1.17;;
8042;SDS011;4064;48.132;11.366;2024-03-25T12:33:42;2.30;;;1.13;;
8042;SDS011;4064;48.132;11.366;2024-03-25T12:36:13;2.17;;;1.20;;
8042;SDS011;4064;48.132;11.366;2024-03-25T12:38:39;1.50;;;1.10;;
8042;SDS011;4064;48.132;11.366;2024-03-25T12:43:42;1.40;;;0.93;;
8042;SDS011;4064;48.132;11.366;2024-03-25T12:46:09;1.70;;;1.00;;
8042;SDS011;4064;48.132;11.366;2024-03-25T12:48:36;2.17;;;1.10;;
8042;SDS011;4064;48.132;11.366;2024-03-25T12:51:02;1.30;;;1.20;;
8042;SDS011;4064;48.132;11.366;2024-03-25T12:53:28;1.73;;;1.00;;
8042;SDS011;4064;48.132;11.366;2024-03-25T12:55:54;1.70;;;1.10;;
8042;SDS011;4064;48.132;11.366;2024-03-25T12:58:19;1.87;;;1.13;;
8042;SDS011;4064;48.132;11.366;2024-03-25T13:00:45;1.70;;;1.07;;
8042;SDS011;4064;48.132;11.366;2024-03-25T13:03:11;1.73;;;1.17;;
8042;SDS011;4064;48.132;11.366;2024-03-25T13:05:39;3.53;;;3.17;;
8042;SDS011;4064;48.132;11.366;2024-03-25T13:08:05;4.33;;;2.00;;
8042;SDS011;4064;48.132;11.366;2024-03-25T13:10:31;1.90;;;1.40;;
8042;SDS011;4064;48.132;11.366;2024-03-25T13:12:57;1.87;;;0.90;;
8042;SDS011;4064;48.132;11.366;2024-03-25T13:15:26;2.40;;;1.13;;
8042;SDS011;4064;48.132;11.366;2024-03-25T13:17:51;1.97;;;1.00;;
8042;SDS011;4064;48.132;11.366;2024-03-25T13:20:17;2.33;;;1.20;;
8042;SDS011;4064;48.132;11.366;2024-03-25T13:22:43;3.10;;;1.30;;
8042;SDS011;4064;48.132;11.366;2024-03-25T13:25:11;1.20;;;0.90;;
8042;SDS011;4064;48.132;11.366;2024-03-25T13:27:36;1.90;;;1.20;;
8042;SDS011;4064;48.132;11.366;2024-03-25T13:30:03;1.77;;;1.07;;
8042;SDS011;4064;48.132;11.366;2024-03-25T13:32:29;1.37;;;0.80;;
8042;SDS011;4064;48.132;11.366;2024-03-25T13:34:55;1.97;;;1.00;;
8042;SDS011;4064;48.132;11.366;2024-03-25T13:37:21;2.00;;;1.37;;
8042;SDS011;4064;48.132;11.366;2024-03-25T13:39:46;2.97;;;1.73;;
8042;SDS011;4064;48.132;11.366;2024-03-25T13:42:13;1.33;;;1.03;;
8042;SDS011;4064;48.132;11.366;2024-03-25T13:44:39;2.23;;;0.90;;
8042;SDS011;4064;48.132;11.366;2024-03-25T13:47:05;2.00;;;1.30;;
8042;SDS011;4064;48.132;11.366;2024-03-25T13:49:32;2.23;;;1.10;;
8042;SDS011;4064;48.132;11.366;2024-03-25T13:51:59;1.60;;;0.97;;
8042;SDS011;4064;48.132;11.366;2024-03-25T13:54:26;2.80;;;1.10;;
8042;SDS011;4064;48.132;11.366;2024-03-25T13:56:51;1.53;;;0.90;;
8042;SDS011;4064;48.132;11.366;2024-03-25T13:59:17;2.27;;;1.00;;
8042;SDS011;4064;48.132;11.366;2024-03-25T14:01:43;1.93;;;1.00;;
8042;SDS011;4064;48.132;11.366;2024-03-25T14:04:09;2.13;;;1.30;;
8042;SDS011;4064;48.132;11.366;2024-03-25T14:06:35;2.20;;;1.13;;
8042;SDS011;4064;48.132;11.366;2024-03-25T14:09:01;1.97;;;1.30;;
8042;SDS011;4064;48.132;11.366;2024-03-25T14:11:30;3.20;;;1.60;;
8042;SDS011;4064;48.132;11.366;2024-03-25T14:13:56;1.83;;;1.07;;
8042;SDS011;4064;48.132;11.366;2024-03-25T14:16:22;2.03;;;1.60;;
8042;SDS011;4064;48.132;11.366;2024-03-25T14:18:47;4.10;;;1.20;;
8042;SDS011;4064;48.132;11.366;2024-03-25T14:21:13;1.60;;;1.30;;
8042;SDS011;4064;48.132;11.366;2024-03-25T14:23:39;1.43;;;1.20;;
8042;SDS011;4064;48.132;11.366;2024-03-25T14:26:08;4.90;;;2.33;;
8042;SDS011;4064;48.132;11.366;2024-03-25T14:28:37;2.50;;;1.27;;
8042;SDS011;4064;48.132;11.366;2024-03-25T14:31:03;1.67;;;0.97;;
8042;SDS011;4064;48.132;11.366;2024-03-25T14:33:29;3.10;;;1.43;;
8042;SDS011;4064;48.132;11.366;2024-03-25T14:35:55;1.50;;;0.90;;
8042;SDS011;4064;48.132;11.366;2024-03-25T14:38:21;2.00;;;1.10;;
8042;SDS011;4064;48.132;11.366;2024-03-25T14:40:46;1.63;;;0.87;;
8042;SDS011;4064;48.132;11.366;2024-03-25T14:43:12;1.30;;;1.00;;
8042;SDS011;4064;48.132;11.366;2024-03-25T14:45:38;1.80;;;1.10;;
8042;SDS011;4064;48.132;11.366;2024-03-25T14:48:04;3.67;;;1.00;;
8042;SDS011;4064;48.132;11.366;2024-03-25T14:50:30;1.00;;;0.90;;
8042;SDS011;4064;48.132;11.366;2024-03-25T14:52:56;3.37;;;1.20;;
8042;SDS011;4064;48.132;11.366;2024-03-25T14:55:21;3.63;;;0.90;;
8042;SDS011;4064;48.132;11.366;2024-03-25T14:57:47;1.20;;;0.97;;
8042;SDS011;4064;48.132;11.366;2024-03-25T15:00:15;1.73;;;1.10;;